sensor_id;sensor_type;location;lat;lon;timestamp;temperature;humidity
48264;DHT22;34086;51.076;13.722;2023-10-08T00:00:25;18.70;99.90
48264;DHT22;34086;51.076;13.722;2023-10-08T00:01:46;18.70;99.90
48264;DHT22;34086;51.076;13.722;2023-10-08T00:02:47;18.70;99.90
48264;DHT22;34086;51.076;13.722;2023-10-08T00:03:48;18.70;99.90
48264;DHT22;34086;51.076;13.722;2023-10-08T00:04:49;18.80;99.90
48264;DHT22;34086;51.076;13.722;2023-10-08T00:05:52;18.80;99.90
48264;DHT22;34086;51.076;13.722;2023-10-08T00:06:53;18.80;99.90
48264;DHT22;34086;51.076;13.722;2023-10-08T00:07:54;18.80;99.90
48264;DHT22;34086;51.076;13.722;2023-10-08T00:08:56;18.80;99.90
48264;DHT22;34086;51.076;13.722;2023-10-08T00:10:07;18.80;99.90
48264;DHT22;34086;51.076;13.722;2023-10-08T00:11:08;18.80;99.90
48264;DHT22;34086;51.076;13.722;2023-10-08T00:12:10;18.80;99.90
48264;DHT22;34086;51.076;13.722;2023-10-08T00:13:14;18.80;99.90
48264;DHT22;34086;51.076;13.722;2023-10-08T00:14:18;18.80;99.90
48264;DHT22;34086;51.076;13.722;2023-10-08T00:15:21;18.80;99.90
48264;DHT22;34086;51.076;13.722;2023-10-08T00:16:25;18.80;99.90
48264;DHT22;34086;51.076;13.722;2023-10-08T00:17:28;18.80;99.90
48264;DHT22;34086;51.076;13.722;2023-10-08T00:18:29;18.80;99.90
48264;DHT22;34086;51.076;13.722;2023-10-08T00:19:29;18.80;99.90
48264;DHT22;34086;51.076;13.722;2023-10-08T00:20:36;18.70;99.90
48264;DHT22;34086;51.076;13.722;2023-10-08T00:21:48;18.70;99.90
48264;DHT22;34086;51.076;13.722;2023-10-08T00:22:49;18.70;99.90
48264;DHT22;34086;51.076;13.722;2023-10-08T00:23:49;18.80;99.90
48264;DHT22;34086;51.076;13.722;2023-10-08T00:24:52;18.70;99.90
48264;DHT22;34086;51.076;13.722;2023-10-08T00:25:58;18.70;99.90
48264;DHT22;34086;51.076;13.722;2023-10-08T00:27:04;18.70;99.90
48264;DHT22;34086;51.076;13.722;2023-10-08T00:28:10;18.70;99.90
48264;DHT22;34086;51.076;13.722;2023-10-08T00:29:13;18.70;99.90
48264;DHT22;34086;51.076;13.722;2023-10-08T00:30:18;18.70;99.90
48264;DHT22;34086;51.076;13.722;2023-10-08T00:31:18;18.70;99.90
48264;DHT22;34086;51.076;13.722;2023-10-08T00:32:19;18.70;99.90
48264;DHT22;34086;51.076;13.722;2023-10-08T00:33:22;18.70;99.90
48264;DHT22;34086;51.076;13.722;2023-10-08T00:34:23;18.70;99.90
48264;DHT22;34086;51.076;13.722;2023-10-08T00:35:27;18.70;99.90
48264;DHT22;34086;51.076;13.722;2023-10-08T00:36:28;18.70;99.90
48264;DHT22;34086;51.076;13.722;2023-10-08T00:37:29;18.60;99.90
48264;DHT22;34086;51.076;13.722;2023-10-08T00:38:29;18.60;99.90
48264;DHT22;34086;51.076;13.722;2023-10-08T00:39:32;18.60;99.90
48264;DHT22;34086;51.076;13.722;2023-10-08T00:40:38;18.60;99.90
48264;DHT22;34086;51.076;13.722;2023-10-08T00:41:51;18.50;99.90
48264;DHT22;34086;51.076;13.722;2023-10-08T00:42:58;18.50;99.90
48264;DHT22;34086;51.076;13.722;2023-10-08T00:43:59;18.50;99.90
48264;DHT22;34086;51.076;13.722;2023-10-08T00:45:00;18.50;99.90
48264;DHT22;34086;51.076;13.722;2023-10-08T00:46:07;18.50;99.90
48264;DHT22;34086;51.076;13.722;2023-10-08T00:47:30;18.50;99.90
48264;DHT22;34086;51.076;13.722;2023-10-08T00:48:34;18.50;99.90
48264;DHT22;34086;51.076;13.722;2023-10-08T00:49:36;18.50;99.90
48264;DHT22;34086;51.076;13.722;2023-10-08T00:50:43;18.50;99.90
48264;DHT22;34086;51.076;13.722;2023-10-08T00:51:45;18.50;99.90
48264;DHT22;34086;51.076;13.722;2023-10-08T00:52:48;18.40;99.90
48264;DHT22;34086;51.076;13.722;2023-10-08T00:54:02;18.40;99.90
48264;DHT22;34086;51.076;13.722;2023-10-08T00:55:11;18.40;99.90
48264;DHT22;34086;51.076;13.722;2023-10-08T00:56:29;18.40;99.90
48264;DHT22;34086;51.076;13.722;2023-10-08T00:58:05;18.40;99.90
48264;DHT22;34086;51.076;13.722;2023-10-08T00:59:09;18.30;99.90
48264;DHT22;34086;51.076;13.722;2023-10-08T01:00:16;18.20;99.90
48264;DHT22;34086;51.076;13.722;2023-10-08T01:01:22;18.20;99.90
48264;DHT22;34086;51.076;13.722;2023-10-08T01:02:25;18.20;99.90
48264;DHT22;34086;51.076;13.722;2023-10-08T01:03:29;18.20;99.90
48264;DHT22;34086;51.076;13.722;2023-10-08T01:04:29;18.30;99.90
48264;DHT22;34086;51.076;13.722;2023-10-08T01:05:34;18.20;99.90
48264;DHT22;34086;51.076;13.722;2023-10-08T01:06:43;18.20;99.90
48264;DHT22;34086;51.076;13.722;2023-10-08T01:07:46;18.20;99.90
48264;DHT22;34086;51.076;13.722;2023-10-08T01:08:51;18.20;99.90
48264;DHT22;34086;51.076;13.722;2023-10-08T01:09:57;18.20;99.90
48264;DHT22;34086;51.076;13.722;2023-10-08T01:11:21;18.30;99.90
48264;DHT22;34086;51.076;13.722;2023-10-08T01:12:49;18.20;99.90
48264;DHT22;34086;51.076;13.722;2023-10-08T01:14:10;18.20;99.90
48264;DHT22;34086;51.076;13.722;2023-10-08T01:15:11;18.20;99.90
48264;DHT22;34086;51.076;13.722;2023-10-08T01:16:24;18.10;99.90
48264;DHT22;34086;51.076;13.722;2023-10-08T01:17:27;18.00;99.90
48264;DHT22;34086;51.076;13.722;2023-10-08T01:18:32;18.00;99.90
48264;DHT22;34086;51.076;13.722;2023-10-08T01:19:35;17.90;99.90
48264;DHT22;34086;51.076;13.722;2023-10-08T01:20:41;17.70;99.90
48264;DHT22;34086;51.076;13.722;2023-10-08T01:21:48;17.50;99.90
48264;DHT22;34086;51.076;13.722;2023-10-08T01:22:48;17.40;99.90
48264;DHT22;34086;51.076;13.722;2023-10-08T01:23:50;17.40;99.90
48264;DHT22;34086;51.076;13.722;2023-10-08T01:24:54;17.20;99.90
48264;DHT22;34086;51.076;13.722;2023-10-08T01:25:55;17.10;99.90
48264;DHT22;34086;51.076;13.722;2023-10-08T01:27:10;17.10;99.90
48264;DHT22;34086;51.076;13.722;2023-10-08T01:28:12;17.00;99.90
48264;DHT22;34086;51.076;13.722;2023-10-08T01:29:18;16.90;99.90
48264;DHT22;34086;51.076;13.722;2023-10-08T01:30:19;16.90;99.90
48264;DHT22;34086;51.076;13.722;2023-10-08T01:31:20;16.80;99.90
48264;DHT22;34086;51.076;13.722;2023-10-08T01:32:21;16.80;99.90
48264;DHT22;34086;51.076;13.722;2023-10-08T01:33:23;16.70;99.90
48264;DHT22;34086;51.076;13.722;2023-10-08T01:34:28;16.60;99.90
48264;DHT22;34086;51.076;13.722;2023-10-08T01:35:31;16.50;99.90
48264;DHT22;34086;51.076;13.722;2023-10-08T01:36:32;16.50;99.90
48264;DHT22;34086;51.076;13.722;2023-10-08T01:37:32;16.50;99.90
48264;DHT22;34086;51.076;13.722;2023-10-08T01:38:34;16.40;99.90
48264;DHT22;34086;51.076;13.722;2023-10-08T01:39:38;16.40;99.90
48264;DHT22;34086;51.076;13.722;2023-10-08T01:40:42;16.40;99.90
48264;DHT22;34086;51.076;13.722;2023-10-08T01:41:44;16.40;99.90
48264;DHT22;34086;51.076;13.722;2023-10-08T01:42:45;16.30;99.90
48264;DHT22;34086;51.076;13.722;2023-10-08T01:43:46;16.30;99.90
48264;DHT22;34086;51.076;13.722;2023-10-08T01:44:49;16.30;99.90
48264;DHT22;34086;51.076;13.722;2023-10-08T01:45:51;16.20;99.90
48264;DHT22;34086;51.076;13.722;2023-10-08T01:46:52;16.10;99.90
48264;DHT22;34086;51.076;13.722;2023-10-08T01:47:53;16.10;99.90
48264;DHT22;34086;51.076;13.722;2023-10-08T01:48:55;16.00;99.90
48264;DHT22;34086;51.076;13.722;2023-10-08T01:50:08;15.90;99.90
48264;DHT22;34086;51.076;13.722;2023-10-08T01:51:21;15.70;99.90
48264;DHT22;34086;51.076;13.722;2023-10-08T01:52:50;15.50;99.90
48264;DHT22;34086;51.076;13.722;2023-10-08T01:53:54;15.30;99.90
48264;DHT22;34086;51.076;13.722;2023-10-08T01:54:58;15.20;99.90
48264;DHT22;34086;51.076;13.722;2023-10-08T01:56:00;15.10;99.90
48264;DHT22;34086;51.076;13.722;2023-10-08T01:57:01;15.00;99.90
48264;DHT22;34086;51.076;13.722;2023-10-08T01:58:03;14.90;99.90
48264;DHT22;34086;51.076;13.722;2023-10-08T01:59:04;14.80;99.90
48264;DHT22;34086;51.076;13.722;2023-10-08T02:00:06;14.70;99.90
48264;DHT22;34086;51.076;13.722;2023-10-08T02:01:12;14.60;99.90
48264;DHT22;34086;51.076;13.722;2023-10-08T02:02:13;14.50;99.90
48264;DHT22;34086;51.076;13.722;2023-10-08T02:03:16;14.50;99.90
48264;DHT22;34086;51.076;13.722;2023-10-08T02:04:18;14.40;99.90
48264;DHT22;34086;51.076;13.722;2023-10-08T02:05:19;14.40;99.90
48264;DHT22;34086;51.076;13.722;2023-10-08T02:06:19;14.30;99.90
48264;DHT22;34086;51.076;13.722;2023-10-08T02:07:21;14.20;99.90
48264;DHT22;34086;51.076;13.722;2023-10-08T02:08:21;14.20;99.90
48264;DHT22;34086;51.076;13.722;2023-10-08T02:09:22;14.10;99.90
48264;DHT22;34086;51.076;13.722;2023-10-08T02:10:27;14.00;99.90
48264;DHT22;34086;51.076;13.722;2023-10-08T02:11:29;14.00;99.90
48264;DHT22;34086;51.076;13.722;2023-10-08T02:12:30;13.90;99.90
48264;DHT22;34086;51.076;13.722;2023-10-08T02:13:31;13.90;99.90
48264;DHT22;34086;51.076;13.722;2023-10-08T02:14:31;13.80;99.90
48264;DHT22;34086;51.076;13.722;2023-10-08T02:15:50;13.70;99.90
48264;DHT22;34086;51.076;13.722;2023-10-08T02:16:54;13.70;99.90
48264;DHT22;34086;51.076;13.722;2023-10-08T02:17:56;13.70;99.90
48264;DHT22;34086;51.076;13.722;2023-10-08T02:18:59;13.70;99.90
48264;DHT22;34086;51.076;13.722;2023-10-08T02:20:00;13.60;99.90
48264;DHT22;34086;51.076;13.722;2023-10-08T02:21:05;13.60;99.90
48264;DHT22;34086;51.076;13.722;2023-10-08T02:22:05;13.60;99.90
48264;DHT22;34086;51.076;13.722;2023-10-08T02:23:10;13.70;99.90
48264;DHT22;34086;51.076;13.722;2023-10-08T02:24:13;13.60;99.90
48264;DHT22;34086;51.076;13.722;2023-10-08T02:25:13;13.60;99.90
48264;DHT22;34086;51.076;13.722;2023-10-08T02:26:14;13.60;99.90
48264;DHT22;34086;51.076;13.722;2023-10-08T02:27:16;13.60;99.90
48264;DHT22;34086;51.076;13.722;2023-10-08T02:28:17;13.50;99.90
48264;DHT22;34086;51.076;13.722;2023-10-08T02:29:23;13.50;99.90
48264;DHT22;34086;51.076;13.722;2023-10-08T02:30:25;13.50;99.90
48264;DHT22;34086;51.076;13.722;2023-10-08T02:31:27;13.50;99.90
48264;DHT22;34086;51.076;13.722;2023-10-08T02:32:28;13.50;99.90
48264;DHT22;34086;51.076;13.722;2023-10-08T02:33:29;13.50;99.90
48264;DHT22;34086;51.076;13.722;2023-10-08T02:34:30;13.50;99.90
48264;DHT22;34086;51.076;13.722;2023-10-08T02:35:31;13.50;99.90
48264;DHT22;34086;51.076;13.722;2023-10-08T02:36:31;13.50;99.90
48264;DHT22;34086;51.076;13.722;2023-10-08T02:37:32;13.50;99.90
48264;DHT22;34086;51.076;13.722;2023-10-08T02:38:35;13.50;99.90
48264;DHT22;34086;51.076;13.722;2023-10-08T02:39:38;13.50;99.90
48264;DHT22;34086;51.076;13.722;2023-10-08T02:40:41;13.50;99.90
48264;DHT22;34086;51.076;13.722;2023-10-08T02:41:48;13.50;99.90
48264;DHT22;34086;51.076;13.722;2023-10-08T02:42:49;13.50;99.90
48264;DHT22;34086;51.076;13.722;2023-10-08T02:43:49;13.50;99.90
48264;DHT22;34086;51.076;13.722;2023-10-08T02:44:50;13.40;99.90
48264;DHT22;34086;51.076;13.722;2023-10-08T02:45:51;13.50;99.90
48264;DHT22;34086;51.076;13.722;2023-10-08T02:46:53;13.40;99.90
48264;DHT22;34086;51.076;13.722;2023-10-08T02:47:55;13.40;99.90
48264;DHT22;34086;51.076;13.722;2023-10-08T02:48:56;13.40;99.90
48264;DHT22;34086;51.076;13.722;2023-10-08T02:49:57;13.40;99.90
48264;DHT22;34086;51.076;13.722;2023-10-08T02:50:59;13.40;99.90
48264;DHT22;34086;51.076;13.722;2023-10-08T02:52:08;13.30;99.90
48264;DHT22;34086;51.076;13.722;2023-10-08T02:53:13;13.30;99.90
48264;DHT22;34086;51.076;13.722;2023-10-08T02:54:22;13.30;99.90
48264;DHT22;34086;51.076;13.722;2023-10-08T02:55:31;13.20;99.90
48264;DHT22;34086;51.076;13.722;2023-10-08T02:56:35;13.20;99.90
48264;DHT22;34086;51.076;13.722;2023-10-08T02:57:35;13.10;99.90
48264;DHT22;34086;51.076;13.722;2023-10-08T02:58:36;13.10;99.90
48264;DHT22;34086;51.076;13.722;2023-10-08T02:59:36;13.00;99.90
48264;DHT22;34086;51.076;13.722;2023-10-08T03:00:42;13.00;99.90
48264;DHT22;34086;51.076;13.722;2023-10-08T03:01:43;13.00;99.90
48264;DHT22;34086;51.076;13.722;2023-10-08T03:02:44;13.00;99.90
48264;DHT22;34086;51.076;13.722;2023-10-08T03:03:46;13.00;99.90
48264;DHT22;34086;51.076;13.722;2023-10-08T03:04:48;13.00;99.90
48264;DHT22;34086;51.076;13.722;2023-10-08T03:05:52;13.00;99.90
48264;DHT22;34086;51.076;13.722;2023-10-08T03:06:53;13.00;99.90
48264;DHT22;34086;51.076;13.722;2023-10-08T03:07:53;13.00;99.90
48264;DHT22;34086;51.076;13.722;2023-10-08T03:08:54;13.00;99.90
48264;DHT22;34086;51.076;13.722;2023-10-08T03:09:54;13.00;99.90
48264;DHT22;34086;51.076;13.722;2023-10-08T03:11:04;13.00;99.90
48264;DHT22;34086;51.076;13.722;2023-10-08T03:12:05;12.90;99.90
48264;DHT22;34086;51.076;13.722;2023-10-08T03:13:09;12.90;99.90
48264;DHT22;34086;51.076;13.722;2023-10-08T03:14:13;12.90;99.90
48264;DHT22;34086;51.076;13.722;2023-10-08T03:15:15;12.90;99.90
48264;DHT22;34086;51.076;13.722;2023-10-08T03:16:38;12.90;99.90
48264;DHT22;34086;51.076;13.722;2023-10-08T03:17:40;12.90;99.90
48264;DHT22;34086;51.076;13.722;2023-10-08T03:18:49;12.90;99.90
48264;DHT22;34086;51.076;13.722;2023-10-08T03:19:50;12.80;99.90
48264;DHT22;34086;51.076;13.722;2023-10-08T03:20:52;12.70;99.90
48264;DHT22;34086;51.076;13.722;2023-10-08T03:21:53;12.50;99.90
48264;DHT22;34086;51.076;13.722;2023-10-08T03:22:57;12.40;99.90
48264;DHT22;34086;51.076;13.722;2023-10-08T03:23:58;12.30;99.90
48264;DHT22;34086;51.076;13.722;2023-10-08T03:24:59;12.20;99.90
48264;DHT22;34086;51.076;13.722;2023-10-08T03:26:14;12.10;99.90
48264;DHT22;34086;51.076;13.722;2023-10-08T03:27:33;12.00;99.90
48264;DHT22;34086;51.076;13.722;2023-10-08T03:28:41;12.00;99.90
48264;DHT22;34086;51.076;13.722;2023-10-08T03:29:42;11.90;99.90
48264;DHT22;34086;51.076;13.722;2023-10-08T03:30:46;11.80;99.90
48264;DHT22;34086;51.076;13.722;2023-10-08T03:31:56;11.80;99.90
48264;DHT22;34086;51.076;13.722;2023-10-08T03:32:57;11.80;99.90
48264;DHT22;34086;51.076;13.722;2023-10-08T03:34:00;11.80;99.90
48264;DHT22;34086;51.076;13.722;2023-10-08T03:35:01;11.80;99.90
48264;DHT22;34086;51.076;13.722;2023-10-08T03:36:06;11.70;99.90
48264;DHT22;34086;51.076;13.722;2023-10-08T03:37:17;11.70;99.90
48264;DHT22;34086;51.076;13.722;2023-10-08T03:38:21;11.70;99.90
48264;DHT22;34086;51.076;13.722;2023-10-08T03:39:28;11.70;99.90
48264;DHT22;34086;51.076;13.722;2023-10-08T03:40:49;11.70;99.90
48264;DHT22;34086;51.076;13.722;2023-10-08T03:41:50;11.70;99.90
48264;DHT22;34086;51.076;13.722;2023-10-08T03:43:09;11.70;99.90
48264;DHT22;34086;51.076;13.722;2023-10-08T03:44:20;11.70;99.90
48264;DHT22;34086;51.076;13.722;2023-10-08T03:45:21;11.70;99.90
48264;DHT22;34086;51.076;13.722;2023-10-08T03:46:40;11.70;99.90
48264;DHT22;34086;51.076;13.722;2023-10-08T03:47:44;11.70;99.90
48264;DHT22;34086;51.076;13.722;2023-10-08T03:48:47;11.70;99.90
48264;DHT22;34086;51.076;13.722;2023-10-08T03:49:57;11.70;99.90
48264;DHT22;34086;51.076;13.722;2023-10-08T03:51:06;11.70;99.90
48264;DHT22;34086;51.076;13.722;2023-10-08T03:52:12;11.60;99.90
48264;DHT22;34086;51.076;13.722;2023-10-08T03:53:15;11.50;99.90
48264;DHT22;34086;51.076;13.722;2023-10-08T03:54:17;11.50;99.90
48264;DHT22;34086;51.076;13.722;2023-10-08T03:55:19;11.40;99.90
48264;DHT22;34086;51.076;13.722;2023-10-08T03:56:19;11.30;99.90
48264;DHT22;34086;51.076;13.722;2023-10-08T03:57:20;11.30;99.90
48264;DHT22;34086;51.076;13.722;2023-10-08T03:58:25;11.20;99.90
48264;DHT22;34086;51.076;13.722;2023-10-08T03:59:30;11.20;99.90
48264;DHT22;34086;51.076;13.722;2023-10-08T04:00:35;11.10;99.90
48264;DHT22;34086;51.076;13.722;2023-10-08T04:01:42;11.10;99.90
48264;DHT22;34086;51.076;13.722;2023-10-08T04:02:44;11.00;99.90
48264;DHT22;34086;51.076;13.722;2023-10-08T04:03:54;11.00;99.90
48264;DHT22;34086;51.076;13.722;2023-10-08T04:05:04;11.00;99.90
48264;DHT22;34086;51.076;13.722;2023-10-08T04:06:21;11.00;99.90
48264;DHT22;34086;51.076;13.722;2023-10-08T04:07:34;11.00;99.90
48264;DHT22;34086;51.076;13.722;2023-10-08T04:09:00;11.10;99.90
48264;DHT22;34086;51.076;13.722;2023-10-08T04:10:10;11.10;99.90
48264;DHT22;34086;51.076;13.722;2023-10-08T04:11:11;11.10;99.90
48264;DHT22;34086;51.076;13.722;2023-10-08T04:12:41;11.20;99.90
48264;DHT22;34086;51.076;13.722;2023-10-08T04:13:45;11.20;99.90
48264;DHT22;34086;51.076;13.722;2023-10-08T04:14:49;11.10;99.90
48264;DHT22;34086;51.076;13.722;2023-10-08T04:15:49;11.10;99.90
48264;DHT22;34086;51.076;13.722;2023-10-08T04:16:53;11.10;99.90
48264;DHT22;34086;51.076;13.722;2023-10-08T04:17:54;11.10;99.90
48264;DHT22;34086;51.076;13.722;2023-10-08T04:18:55;11.10;99.90
48264;DHT22;34086;51.076;13.722;2023-10-08T04:19:56;11.00;99.90
48264;DHT22;34086;51.076;13.722;2023-10-08T04:20:58;10.90;99.90
48264;DHT22;34086;51.076;13.722;2023-10-08T04:22:05;10.90;99.90
48264;DHT22;34086;51.076;13.722;2023-10-08T04:23:15;10.90;99.90
48264;DHT22;34086;51.076;13.722;2023-10-08T04:24:25;10.90;99.90
48264;DHT22;34086;51.076;13.722;2023-10-08T04:25:30;10.90;99.90
48264;DHT22;34086;51.076;13.722;2023-10-08T04:26:31;10.90;99.90
48264;DHT22;34086;51.076;13.722;2023-10-08T04:27:34;10.90;99.90
48264;DHT22;34086;51.076;13.722;2023-10-08T04:28:34;10.80;99.90
48264;DHT22;34086;51.076;13.722;2023-10-08T04:29:36;10.80;99.90
48264;DHT22;34086;51.076;13.722;2023-10-08T04:30:42;10.80;99.90
48264;DHT22;34086;51.076;13.722;2023-10-08T04:31:45;10.80;99.90
48264;DHT22;34086;51.076;13.722;2023-10-08T04:32:47;10.80;99.90
48264;DHT22;34086;51.076;13.722;2023-10-08T04:33:47;10.80;99.90
48264;DHT22;34086;51.076;13.722;2023-10-08T04:34:48;10.80;99.90
48264;DHT22;34086;51.076;13.722;2023-10-08T04:35:50;10.90;99.90
48264;DHT22;34086;51.076;13.722;2023-10-08T04:36:56;10.90;99.90
48264;DHT22;34086;51.076;13.722;2023-10-08T04:38:12;10.90;99.90
48264;DHT22;34086;51.076;13.722;2023-10-08T04:39:16;10.90;99.90
48264;DHT22;34086;51.076;13.722;2023-10-08T04:40:21;10.90;99.90
48264;DHT22;34086;51.076;13.722;2023-10-08T04:41:24;10.90;99.90
48264;DHT22;34086;51.076;13.722;2023-10-08T04:42:28;10.90;99.90
48264;DHT22;34086;51.076;13.722;2023-10-08T04:43:29;10.90;99.90
48264;DHT22;34086;51.076;13.722;2023-10-08T04:44:31;10.90;99.90
48264;DHT22;34086;51.076;13.722;2023-10-08T04:45:32;10.90;99.90
48264;DHT22;34086;51.076;13.722;2023-10-08T04:46:34;10.90;99.90
48264;DHT22;34086;51.076;13.722;2023-10-08T04:47:38;10.90;99.90
48264;DHT22;34086;51.076;13.722;2023-10-08T04:48:42;10.90;99.90
48264;DHT22;34086;51.076;13.722;2023-10-08T04:49:44;11.00;99.90
48264;DHT22;34086;51.076;13.722;2023-10-08T04:50:49;11.00;99.90
48264;DHT22;34086;51.076;13.722;2023-10-08T04:52:00;11.00;99.90
48264;DHT22;34086;51.076;13.722;2023-10-08T04:53:01;11.00;99.90
48264;DHT22;34086;51.076;13.722;2023-10-08T04:54:08;11.00;99.90
48264;DHT22;34086;51.076;13.722;2023-10-08T04:55:09;11.00;99.90
48264;DHT22;34086;51.076;13.722;2023-10-08T04:56:16;11.00;99.90
48264;DHT22;34086;51.076;13.722;2023-10-08T04:57:20;11.00;99.90
48264;DHT22;34086;51.076;13.722;2023-10-08T04:58:26;11.00;99.90
48264;DHT22;34086;51.076;13.722;2023-10-08T04:59:33;11.00;99.90
48264;DHT22;34086;51.076;13.722;2023-10-08T05:00:34;10.90;99.90
48264;DHT22;34086;51.076;13.722;2023-10-08T05:01:54;10.90;99.90
48264;DHT22;34086;51.076;13.722;2023-10-08T05:03:12;10.90;99.90
48264;DHT22;34086;51.076;13.722;2023-10-08T05:04:16;10.80;99.90
48264;DHT22;34086;51.076;13.722;2023-10-08T05:05:55;10.90;99.90
48264;DHT22;34086;51.076;13.722;2023-10-08T05:07:07;10.90;99.90
48264;DHT22;34086;51.076;13.722;2023-10-08T05:08:22;10.90;99.90
48264;DHT22;34086;51.076;13.722;2023-10-08T05:09:29;10.80;99.90
48264;DHT22;34086;51.076;13.722;2023-10-08T05:10:47;10.80;99.90
48264;DHT22;34086;51.076;13.722;2023-10-08T05:12:01;10.90;99.90
48264;DHT22;34086;51.076;13.722;2023-10-08T05:13:29;10.80;99.90
48264;DHT22;34086;51.076;13.722;2023-10-08T05:14:35;10.90;99.90
48264;DHT22;34086;51.076;13.722;2023-10-08T05:15:39;10.80;99.90
48264;DHT22;34086;51.076;13.722;2023-10-08T05:17:07;10.90;99.90
48264;DHT22;34086;51.076;13.722;2023-10-08T05:18:11;10.80;99.90
48264;DHT22;34086;51.076;13.722;2023-10-08T05:19:23;10.80;99.90
48264;DHT22;34086;51.076;13.722;2023-10-08T05:20:43;10.90;99.90
48264;DHT22;34086;51.076;13.722;2023-10-08T05:21:49;10.90;99.90
48264;DHT22;34086;51.076;13.722;2023-10-08T05:23:07;10.90;99.90
48264;DHT22;34086;51.076;13.722;2023-10-08T05:24:21;10.90;99.90
48264;DHT22;34086;51.076;13.722;2023-10-08T05:25:28;10.90;99.90
48264;DHT22;34086;51.076;13.722;2023-10-08T05:26:41;10.90;99.90
48264;DHT22;34086;51.076;13.722;2023-10-08T05:27:45;10.90;99.90
48264;DHT22;34086;51.076;13.722;2023-10-08T05:28:50;10.90;99.90
48264;DHT22;34086;51.076;13.722;2023-10-08T05:30:26;10.90;99.90
48264;DHT22;34086;51.076;13.722;2023-10-08T05:31:53;10.90;99.90
48264;DHT22;34086;51.076;13.722;2023-10-08T05:33:14;10.90;99.90
48264;DHT22;34086;51.076;13.722;2023-10-08T05:34:17;10.90;99.90
48264;DHT22;34086;51.076;13.722;2023-10-08T05:35:23;10.90;99.90
48264;DHT22;34086;51.076;13.722;2023-10-08T05:36:39;10.90;99.90
48264;DHT22;34086;51.076;13.722;2023-10-08T05:38:06;10.90;99.90
48264;DHT22;34086;51.076;13.722;2023-10-08T05:39:25;10.80;99.90
48264;DHT22;34086;51.076;13.722;2023-10-08T05:40:26;10.90;99.90
48264;DHT22;34086;51.076;13.722;2023-10-08T05:41:46;10.90;99.90
48264;DHT22;34086;51.076;13.722;2023-10-08T05:42:55;10.90;99.90
48264;DHT22;34086;51.076;13.722;2023-10-08T05:44:01;10.90;99.90
48264;DHT22;34086;51.076;13.722;2023-10-08T05:45:14;10.90;99.90
48264;DHT22;34086;51.076;13.722;2023-10-08T05:46:29;10.90;99.90
48264;DHT22;34086;51.076;13.722;2023-10-08T05:47:30;10.90;99.90
48264;DHT22;34086;51.076;13.722;2023-10-08T05:48:33;10.90;99.90
48264;DHT22;34086;51.076;13.722;2023-10-08T05:49:45;10.90;99.90
48264;DHT22;34086;51.076;13.722;2023-10-08T05:51:06;10.80;99.90
48264;DHT22;34086;51.076;13.722;2023-10-08T05:52:14;10.70;99.90
48264;DHT22;34086;51.076;13.722;2023-10-08T05:53:26;10.70;99.90
48264;DHT22;34086;51.076;13.722;2023-10-08T05:54:44;10.70;99.90
48264;DHT22;34086;51.076;13.722;2023-10-08T05:56:06;10.70;99.90
48264;DHT22;34086;51.076;13.722;2023-10-08T05:57:17;10.70;99.90
48264;DHT22;34086;51.076;13.722;2023-10-08T05:58:36;10.60;99.90
48264;DHT22;34086;51.076;13.722;2023-10-08T05:59:47;10.70;99.90
48264;DHT22;34086;51.076;13.722;2023-10-08T06:00:56;10.70;99.90
48264;DHT22;34086;51.076;13.722;2023-10-08T06:02:08;10.60;99.90
48264;DHT22;34086;51.076;13.722;2023-10-08T06:03:28;10.60;99.90
48264;DHT22;34086;51.076;13.722;2023-10-08T06:05:02;10.50;99.90
48264;DHT22;34086;51.076;13.722;2023-10-08T06:06:12;10.50;99.90
48264;DHT22;34086;51.076;13.722;2023-10-08T06:07:16;10.40;99.90
48264;DHT22;34086;51.076;13.722;2023-10-08T06:08:33;10.30;99.90
48264;DHT22;34086;51.076;13.722;2023-10-08T06:10:12;10.30;99.90
48264;DHT22;34086;51.076;13.722;2023-10-08T06:11:38;10.20;99.90
48264;DHT22;34086;51.076;13.722;2023-10-08T06:12:44;10.20;99.90
48264;DHT22;34086;51.076;13.722;2023-10-08T06:13:50;10.10;99.90
48264;DHT22;34086;51.076;13.722;2023-10-08T06:14:56;10.10;99.90
48264;DHT22;34086;51.076;13.722;2023-10-08T06:16:08;10.10;99.90
48264;DHT22;34086;51.076;13.722;2023-10-08T06:17:10;10.10;99.90
48264;DHT22;34086;51.076;13.722;2023-10-08T06:18:33;10.10;99.90
48264;DHT22;34086;51.076;13.722;2023-10-08T06:19:34;10.10;99.90
48264;DHT22;34086;51.076;13.722;2023-10-08T06:20:35;10.10;99.90
48264;DHT22;34086;51.076;13.722;2023-10-08T06:21:39;10.20;99.90
48264;DHT22;34086;51.076;13.722;2023-10-08T06:22:40;10.20;99.90
48264;DHT22;34086;51.076;13.722;2023-10-08T06:23:41;10.10;99.90
48264;DHT22;34086;51.076;13.722;2023-10-08T06:24:46;10.10;99.90
48264;DHT22;34086;51.076;13.722;2023-10-08T06:25:47;10.10;99.90
48264;DHT22;34086;51.076;13.722;2023-10-08T06:26:54;10.20;99.90
48264;DHT22;34086;51.076;13.722;2023-10-08T06:27:56;10.20;99.90
48264;DHT22;34086;51.076;13.722;2023-10-08T06:28:57;10.20;99.90
48264;DHT22;34086;51.076;13.722;2023-10-08T06:29:59;10.20;99.90
48264;DHT22;34086;51.076;13.722;2023-10-08T06:30:59;10.30;99.90
48264;DHT22;34086;51.076;13.722;2023-10-08T06:32:01;10.30;99.90
48264;DHT22;34086;51.076;13.722;2023-10-08T06:33:02;10.40;99.90
48264;DHT22;34086;51.076;13.722;2023-10-08T06:34:04;10.40;99.90
48264;DHT22;34086;51.076;13.722;2023-10-08T06:35:08;10.40;99.90
48264;DHT22;34086;51.076;13.722;2023-10-08T06:36:11;10.40;99.90
48264;DHT22;34086;51.076;13.722;2023-10-08T06:37:12;10.50;99.90
48264;DHT22;34086;51.076;13.722;2023-10-08T06:38:16;10.50;99.90
48264;DHT22;34086;51.076;13.722;2023-10-08T06:39:22;10.50;99.90
48264;DHT22;34086;51.076;13.722;2023-10-08T06:40:34;10.50;99.90
48264;DHT22;34086;51.076;13.722;2023-10-08T06:41:38;10.50;99.90
48264;DHT22;34086;51.076;13.722;2023-10-08T06:42:38;10.60;99.90
48264;DHT22;34086;51.076;13.722;2023-10-08T06:43:42;10.60;99.90
48264;DHT22;34086;51.076;13.722;2023-10-08T06:44:48;10.60;99.90
48264;DHT22;34086;51.076;13.722;2023-10-08T06:45:49;10.60;99.90
48264;DHT22;34086;51.076;13.722;2023-10-08T06:46:52;10.60;99.90
48264;DHT22;34086;51.076;13.722;2023-10-08T06:47:55;10.70;99.90
48264;DHT22;34086;51.076;13.722;2023-10-08T06:48:58;10.70;99.90
48264;DHT22;34086;51.076;13.722;2023-10-08T06:49:58;10.70;99.90
48264;DHT22;34086;51.076;13.722;2023-10-08T06:50:59;10.70;99.90